Pagina principale
METAR-TAF:

METAR-TAF

Aeroporti :

Aeroporto di Firenze-Peretola

Firenze, Italia

latitudine: 43-48N, longitudine: 011-12E, altezza: 40 m

Osservazione

Il bollettino è stato emesso 36 minuti fa, alle 09:50 UTC
Vento 11 kt da est/sud-est
Temperature 13°C
Umidità 88%
Pressione 1006 hPa
Visibilità 10 km o più
Poco nuvoloso ad un'altezza di 2500 ft
Nubi sparse ad un'altezza di 4000 ft
Nuvoloso ad un'altezza di 7000 ft

METAR: LIRQ 270950Z 11011KT 9999 FEW025 SCT040 BKN070 13/11 Q1006

Ora: 11:26 (10:26 UTC)

Previsione

Il bollettino è stato emesso 5 ore e 26 minuti fa, alle 05:00 UTC
Previsione valida dal 27 alle 06 UTC al 28 alle 06 UTC
Vento 12 kt da est/sud-est
Visibilità: 6000 m
Nuvoloso ad un'altezza di 4000 ft
pioggia
Evoluzione graduale
dal 27 alle 14 UTC al 27 alle 16 UTC
Vento 6 kt da nord-est
Evoluzione graduale
dal 28 alle 00 UTC al 28 alle 02 UTC

TAF: LIRQ 270500Z 2706/2806 12012KT 6000 RA BKN040 BECMG 2714/2716 04006KT BECMG 2800/2802 NSW

Osservazioni e previsioni meteorologiche di più di 4000 aeroporti (messaggi METAR e TAF).

Le stazioni disponibili sono rappresentate dai dischi gialli e rossi sulla carta.

Puntare il mouse per vedere il nome della stazione.

Clicca sopra per visualizzare le osservazioni e previsioni meteorologiche.

Per cambiare la mappa : fare clic sui pulsanti verdi con una croce nera per ingrandire, il pulsante verde con un trattino per diminuire, o sulla freccia verde per le mappe adiacenti.


METAR-TAF: